Time;durP1;ratioP1;P1;durP2;ratioP2;P2;SDS_P1;SDS_P2;PMS_P1;PMS_P2;Temp;Humidity;BMP_temperature;BMP_pressure;BME280_temperature;BME280_humidity;BME280_pressure;Samples;Min_cycle;Max_cycle;Signal;HPM_P1;HPM_P2
2022/04/15 00:00:56;;;;;;;;;10.00;7.33;;;;;17.48;52.11;101961.06;5080701;27;45229;-67
2022/04/15 00:03:21;;;;;;;;;8.67;6.67;;;;;17.48;52.00;101951.16;5099036;27;45407;-66
2022/04/15 00:05:47;;;;;;;;;7.33;6.67;;;;;17.48;51.97;101942.22;5098415;27;45717;-67
2022/04/15 00:08:13;;;;;;;;;8.33;8.00;;;;;17.56;51.80;101963.78;5098237;27;45523;-67
2022/04/15 00:10:41;;;;;;;;;8.67;6.33;;;;;17.46;52.35;101949.63;5100567;27;45524;-67
2022/04/15 00:13:12;;;;;;;;;8.00;8.00;;;;;17.38;52.38;101949.56;5099118;27;45598;-66
2022/04/15 00:15:38;;;;;;;;;6.00;6.00;;;;;17.40;52.32;101948.38;5098494;27;45937;-67
2022/04/15 00:18:04;;;;;;;;;7.67;7.67;;;;;17.37;52.57;101947.88;5106235;27;45449;-66
2022/04/15 00:20:30;;;;;;;;;11.00;8.33;;;;;17.31;52.34;101936.75;5101029;27;45390;-66
2022/04/15 00:22:58;;;;;;;;;11.67;8.00;;;;;17.40;52.38;101958.31;5119394;27;45203;-67
2022/04/15 00:25:24;;;;;;;;;8.33;8.33;;;;;17.38;52.59;101950.41;5116677;27;45645;-67
2022/04/15 00:27:50;;;;;;;;;10.00;9.00;;;;;17.37;52.57;101953.25;5077670;28;45232;-66
2022/04/15 00:30:15;;;;;;;;;9.67;8.33;;;;;17.11;52.80;101915.63;5078124;28;45336;-67
2022/04/15 00:32:43;;;;;;;;;9.33;8.00;;;;;17.36;52.62;101956.94;5078261;28;45399;-66
2022/04/15 00:35:09;;;;;;;;;6.67;6.67;;;;;17.32;52.81;101957.25;5077928;28;46597;-67
2022/04/15 00:37:35;;;;;;;;;9.00;9.00;;;;;17.21;52.82;101944.06;5059521;28;45487;-67
2022/04/15 00:40:02;;;;;;;;;7.67;7.67;;;;;16.97;52.93;101900.91;5079132;27;45290;-66
2022/04/15 00:42:28;;;;;;;;;8.00;6.67;;;;;17.22;52.97;101948.47;5080234;27;45534;-66
2022/04/15 00:44:54;;;;;;;;;9.67;6.67;;;;;17.24;52.61;101951.84;5098206;27;46457;-67
2022/04/15 00:47:48;;;;;;;;;6.33;6.33;;;;;17.16;53.41;101951.78;5098029;27;45232;-68
2022/04/15 00:50:14;;;;;;;;;33.00;30.00;;;;;17.17;53.27;101948.09;5073124;28;45304;-66
2022/04/15 00:52:44;;;;;;;;;7.67;7.67;;;;;17.20;53.16;101955.81;5059738;28;45257;-67
2022/04/15 00:55:10;;;;;;;;;6.00;5.00;;;;;17.13;53.33;101946.72;5079393;27;46938;-67
2022/04/15 00:57:39;;;;;;;;;7.67;6.00;;;;;17.19;53.23;101950.59;5098068;27;45569;-67
2022/04/15 01:00:07;;;;;;;;;7.00;6.67;;;;;17.19;53.41;101955.97;5098005;27;45405;-66
2022/04/15 01:02:37;;;;;;;;;9.67;7.67;;;;;17.17;53.74;101953.47;5098297;27;45276;-67
2022/04/15 01:05:04;;;;;;;;;6.00;5.00;;;;;17.13;53.34;101954.78;5097987;27;46067;-66
2022/04/15 01:07:33;;;;;;;;;8.00;6.67;;;;;17.04;53.50;101953.03;5097799;27;45433;-66
2022/04/15 01:09:59;;;;;;;;;5.00;5.00;;;;;17.03;53.60;101956.72;5097531;27;45394;-67
2022/04/15 01:12:28;;;;;;;;;9.33;9.33;;;;;16.71;53.95;101907.13;5098122;27;45501;-67
2022/04/15 01:15:03;;;;;;;;;8.33;7.33;;;;;16.92;53.76;101956.97;5097696;27;46324;-67
2022/04/15 01:17:28;;;;;;;;;9.33;8.00;;;;;16.49;54.09;101888.78;5095467;27;46131;-66
2022/04/15 01:19:55;;;;;;;;;6.33;6.33;;;;;16.85;54.28;101955.91;5098096;27;45517;-67
2022/04/15 01:22:24;;;;;;;;;7.00;5.67;;;;;16.77;54.38;101950.47;5087954;27;45538;-68
2022/04/15 01:24:50;;;;;;;;;7.00;7.00;;;;;16.80;54.29;101958.19;5079147;27;47220;-68
2022/04/15 01:27:37;;;;;;;;;4.33;4.00;;;;;16.79;54.10;101964.56;5077014;27;45446;-66
2022/04/15 01:30:05;;;;;;;;;7.00;6.00;;;;;16.83;54.24;101963.28;5059132;28;45416;-66
2022/04/15 01:32:31;;;;;;;;;8.00;5.00;;;;;16.81;54.02;101963.41;5059233;28;45242;-67
2022/04/15 01:34:57;;;;;;;;;6.00;6.00;;;;;16.65;54.10;101937.25;5058997;28;47890;-66
2022/04/15 01:37:23;;;;;;;;;4.00;2.67;;;;;16.61;54.37;101935.00;5077343;28;45237;-67
2022/04/15 01:39:50;;;;;;;;;6.33;4.67;;;;;16.74;54.29;101957.00;5077365;27;45398;-67
2022/04/15 01:42:25;;;;;;;;;11.00;8.00;;;;;16.61;54.41;101949.28;5097806;27;45292;-67
2022/04/15 01:44:51;;;;;;;;;6.67;6.67;;;;;16.55;54.44;101938.31;5079062;27;45709;-67
2022/04/15 01:47:16;;;;;;;;;7.67;5.67;;;;;16.75;54.21;101964.03;5094867;27;45254;-66
2022/04/15 01:49:45;;;;;;;;;6.33;5.67;;;;;16.79;54.24;101956.50;5077369;28;45314;-67
2022/04/15 01:52:10;;;;;;;;;9.00;7.67;;;;;16.80;53.82;101952.84;5059195;28;45499;-66
2022/04/15 01:54:36;;;;;;;;;7.00;7.00;;;;;16.80;54.05;101955.50;5063671;27;46275;-67
2022/04/15 01:57:02;;;;;;;;;8.00;6.33;;;;;16.79;53.93;101960.03;5078941;27;45620;-68
2022/04/15 01:59:28;;;;;;;;;8.00;6.33;;;;;16.38;54.08;101884.47;5097482;27;45342;-67
2022/04/15 02:01:54;;;;;;;;;8.67;6.67;;;;;16.78;54.00;101963.72;5084985;27;45374;-67
2022/04/15 02:04:25;;;;;;;;;10.00;9.00;;;;;16.73;54.40;101956.16;5076752;28;46478;-67
2022/04/15 02:06:52;;;;;;;;;11.33;8.33;;;;;16.72;54.28;101954.47;5076308;28;45269;-67
2022/04/15 02:09:17;;;;;;;;;9.00;8.00;;;;;16.34;54.43;101891.16;5084562;27;45401;-67
2022/04/15 02:11:43;;;;;;;;;13.00;12.67;;;;;16.63;54.49;101944.63;5097319;27;45283;-67
2022/04/15 02:14:09;;;;;;;;;10.00;9.33;;;;;16.65;54.60;101958.75;5097199;27;46261;-67
2022/04/15 02:16:35;;;;;;;;;9.33;9.33;;;;;16.60;54.60;101952.13;5097035;27;45333;-66
2022/04/15 02:19:01;;;;;;;;;9.00;8.67;;;;;16.63;54.79;101967.94;5062175;28;45561;-68
2022/04/15 02:21:26;;;;;;;;;7.50;7.50;;;;;16.59;54.63;101959.34;5076923;28;45449;-66
2022/04/15 02:23:51;;;;;;;;;8.00;7.00;;;;;16.61;54.74;101960.03;5069568;27;47631;-67
2022/04/15 02:26:17;;;;;;;;;7.33;6.00;;;;;16.60;54.64;101965.53;5078530;27;45505;-66
2022/04/15 02:28:42;;;;;;;;;8.33;6.33;;;;;16.26;54.65;101903.66;5097118;27;45378;-67
2022/04/15 02:31:08;;;;;;;;;11.67;10.33;;;;;16.61;54.72;101961.84;5099549;27;45497;-67
2022/04/15 02:33:34;;;;;;;;;13.33;10.67;;;;;16.60;54.43;101957.50;5082040;27;48162;-66
2022/04/15 02:35:59;;;;;;;;;5.33;4.33;;;;;16.61;54.57;101954.66;5100493;27;45485;-67
2022/04/15 02:38:24;;;;;;;;;11.00;9.67;;;;;16.58;54.64;101949.59;5090336;27;45529;-67
2022/04/15 02:40:50;;;;;;;;;10.00;8.00;;;;;16.62;54.61;101959.06;5080322;27;45273;-67
2022/04/15 02:43:15;;;;;;;;;8.00;8.00;;;;;16.63;54.81;101960.75;5079987;28;45388;-67
2022/04/15 02:45:41;;;;;;;;;9.33;9.33;;;;;16.37;54.70;101915.00;5079941;28;45336;-66
2022/04/15 02:48:07;;;;;;;;;10.33;8.33;;;;;16.59;54.53;101947.75;5061785;28;45590;-67
2022/04/15 02:50:32;;;;;;;;;9.67;9.33;;;;;16.61;54.83;101951.97;5092905;27;45246;-67
2022/04/15 02:53:01;;;;;;;;;11.67;11.33;;;;;16.58;54.85;101959.50;5094282;27;46413;-67
2022/04/15 02:55:32;;;;;;;;;9.33;9.00;;;;;16.59;54.83;101964.69;5079739;28;45293;-66
2022/04/15 02:57:57;;;;;;;;;13.00;11.00;;;;;16.53;54.82;101957.28;5079661;28;45400;-66
2022/04/15 03:00:23;;;;;;;;;10.33;10.33;;;;;16.57;54.86;101972.06;5061566;28;45546;-68
2022/04/15 03:02:48;;;;;;;;;11.00;10.67;;;;;16.39;54.93;101944.38;5079540;28;46328;-67
2022/04/15 03:05:36;;;;;;;;;9.67;8.67;;;;;15.86;55.02;101853.13;5061192;28;45603;-67
2022/04/15 03:08:02;;;;;;;;;9.67;8.67;;;;;16.50;55.09;101954.91;5088605;27;45353;-67
2022/04/15 03:10:27;;;;;;;;;10.00;9.00;;;;;16.43;55.03;101953.84;5096822;27;45511;-66
2022/04/15 03:13:02;;;;;;;;;12.67;12.67;;;;;16.45;55.04;101959.88;5079228;28;46330;-66
2022/04/15 03:15:28;;;;;;;;;11.00;9.67;;;;;16.11;54.96;101904.19;5079118;28;45257;-67
2022/04/15 03:17:53;;;;;;;;;10.00;10.00;;;;;16.39;55.00;101950.59;5079126;27;46079;-67
2022/04/15 03:20:21;;;;;;;;;10.67;10.67;;;;;16.40;55.29;101954.09;5079437;28;45537;-67
2022/04/15 03:22:47;;;;;;;;;13.33;11.67;;;;;16.43;55.08;101959.19;5085960;27;46780;-67
2022/04/15 03:25:17;;;;;;;;;9.00;9.00;;;;;16.39;55.27;101949.75;5099366;27;45517;-67
2022/04/15 03:27:46;;;;;;;;;15.33;11.33;;;;;16.43;55.08;101959.19;5099391;27;45492;-65
2022/04/15 03:30:14;;;;;;;;;13.33;10.00;;;;;16.46;55.50;101975.00;5099809;27;45386;-67
2022/04/15 03:32:47;;;;;;;;;11.67;8.00;;;;;16.31;55.30;101952.34;5080814;27;47719;-67
2022/04/15 03:35:15;;;;;;;;;9.67;8.67;;;;;16.43;54.92;101965.41;5099271;27;45540;-66
2022/04/15 03:37:40;;;;;;;;;9.67;9.00;;;;;16.36;54.74;101967.00;5091180;27;45276;-66
2022/04/15 03:40:07;;;;;;;;;10.00;10.00;;;;;16.28;54.93;101953.50;5079098;28;45336;-67
2022/04/15 03:42:45;;;;;;;;;12.33;12.33;;;;;16.39;55.03;101965.84;5060091;28;47476;-67
2022/04/15 03:45:14;;;;;;;;;12.33;9.33;;;;;16.38;55.24;101973.06;5079096;28;45332;-67
2022/04/15 03:47:40;;;;;;;;;9.67;9.67;;;;;16.33;55.14;101969.16;5078653;27;45570;-66
2022/04/15 03:50:06;;;;;;;;;14.00;12.67;;;;;16.27;55.28;101961.72;5079009;28;45379;-68
2022/04/15 03:52:38;;;;;;;;;10.00;10.00;;;;;16.32;55.15;101972.81;5056315;27;47138;-65
2022/04/15 03:55:04;;;;;;;;;12.00;8.67;;;;;16.31;55.45;101971.13;5098810;27;45619;-66
2022/04/15 03:57:30;;;;;;;;;11.67;8.33;;;;;16.19;55.33;101951.72;5098735;27;45700;-66
2022/04/15 03:59:55;;;;;;;;;13.00;12.00;;;;;16.30;55.46;101978.34;5099375;27;45342;-67
2022/04/15 04:02:21;;;;;;;;;8.00;8.00;;;;;16.32;55.35;101978.19;5098899;27;46217;-66
2022/04/15 04:04:46;;;;;;;;;9.67;9.67;;;;;16.27;55.44;101969.75;5098653;27;45323;-67
2022/04/15 04:07:11;;;;;;;;;9.67;8.33;;;;;16.33;55.37;101978.03;5098690;27;45536;-67
2022/04/15 04:09:37;;;;;;;;;16.67;13.00;;;;;16.33;55.73;101971.81;5098658;27;45435;-66
2022/04/15 04:12:02;;;;;;;;;10.67;10.00;;;;;16.32;55.36;101976.34;5080048;27;46656;-67
2022/04/15 04:14:28;;;;;;;;;9.67;9.00;;;;;16.27;55.24;101977.81;5090091;27;45421;-67
2022/04/15 04:16:53;;;;;;;;;10.00;10.00;;;;;16.31;55.66;101984.56;5088501;27;45431;-66
2022/04/15 04:19:18;;;;;;;;;13.33;10.33;;;;;16.25;55.98;101980.66;5080194;27;45584;-67
2022/04/15 04:21:44;;;;;;;;;11.67;11.67;;;;;16.30;55.92;101985.56;5080144;27;46309;-67
2022/04/15 04:24:09;;;;;;;;;9.00;7.33;;;;;16.23;55.97;101979.13;5098512;27;45150;-67
2022/04/15 04:26:34;;;;;;;;;10.67;9.67;;;;;16.23;56.20;101985.31;5098106;27;45186;-66
2022/04/15 04:29:00;;;;;;;;;9.00;9.00;;;;;16.20;55.75;101984.75;5080232;27;45182;-66
2022/04/15 04:31:25;;;;;;;;;6.33;6.33;;;;;16.21;56.09;101992.66;5086324;27;45930;-66
2022/04/15 04:33:51;;;;;;;;;11.00;10.33;;;;;16.20;56.27;101990.97;5078054;28;45229;-67
2022/04/15 04:36:16;;;;;;;;;13.33;13.33;;;;;16.16;56.45;101984.22;5078173;28;45249;-67
2022/04/15 04:38:41;;;;;;;;;10.33;10.33;;;;;16.23;56.34;101998.75;5059807;28;45282;-67
2022/04/15 04:41:07;;;;;;;;;10.33;10.00;;;;;16.21;56.43;101992.66;5086306;27;47576;-67
2022/04/15 04:43:32;;;;;;;;;11.00;10.00;;;;;15.94;56.38;101957.81;5098573;27;45311;-68
2022/04/15 04:45:57;;;;;;;;;10.00;9.00;;;;;16.21;56.77;102007.91;5098464;27;45237;-68
2022/04/15 04:48:23;;;;;;;;;13.00;10.00;;;;;16.18;56.93;102002.84;5082782;27;45478;-67
2022/04/15 04:50:50;;;;;;;;;12.00;10.33;;;;;16.19;56.99;102005.38;5076230;28;47578;-66
2022/04/15 04:53:16;;;;;;;;;11.67;10.00;;;;;16.15;57.30;101997.78;5076613;28;45411;-67
2022/04/15 04:55:41;;;;;;;;;13.67;9.67;;;;;16.24;56.88;102016.53;5087007;27;45298;-66
2022/04/15 04:58:07;;;;;;;;;10.33;10.33;;;;;16.23;57.10;102014.84;5097869;27;45359;-68
2022/04/15 05:00:32;;;;;;;;;9.33;8.33;;;;;16.22;57.34;102014.97;5079652;27;47649;-68
2022/04/15 05:02:57;;;;;;;;;14.67;12.00;;;;;16.20;57.52;102028.53;5097863;27;45336;-67
2022/04/15 05:05:23;;;;;;;;;13.00;13.00;;;;;16.20;57.39;102022.31;5097953;27;45429;-66
2022/04/15 05:07:49;;;;;;;;;12.33;10.67;;;;;15.86;57.32;101977.34;5098080;27;45532;-68
2022/04/15 05:10:14;;;;;;;;;13.33;9.33;;;;;16.11;57.62;102027.59;5094249;27;47405;-66
2022/04/15 05:12:39;;;;;;;;;15.33;13.00;;;;;16.10;57.42;102025.06;5077220;28;45289;-67
2022/04/15 05:15:05;;;;;;;;;12.67;10.33;;;;;15.84;57.77;101984.69;5077488;28;45319;-67
2022/04/15 05:17:31;;;;;;;;;14.67;12.67;;;;;16.16;57.41;102037.03;5084869;27;45471;-67
2022/04/15 05:19:59;;;;;;;;;14.67;12.33;;;;;15.95;57.35;102005.09;5067236;28;47485;-68
2022/04/15 05:22:25;;;;;;;;;9.33;9.33;;;;;16.15;57.62;102032.66;5059853;28;46101;-67
2022/04/15 05:24:52;;;;;;;;;8.67;8.67;;;;;16.19;57.45;102040.25;5090976;27;45699;-67
2022/04/15 05:27:18;;;;;;;;;10.33;10.33;;;;;16.23;57.54;102043.50;5077411;27;45630;-67
2022/04/15 05:29:43;;;;;;;;;11.67;11.67;;;;;16.21;57.25;102032.91;5084439;27;45734;-66
2022/04/15 05:32:08;;;;;;;;;10.33;10.33;;;;;16.03;57.24;102011.41;5078977;27;45372;-66
2022/04/15 05:34:34;;;;;;;;;12.00;12.00;;;;;15.82;57.31;101982.16;5097711;27;45360;-65
2022/04/15 05:36:59;;;;;;;;;12.33;12.33;;;;;15.95;57.21;101997.88;5098107;27;45497;-67
2022/04/15 05:39:24;;;;;;;;;12.00;12.00;;;;;16.13;56.95;102027.44;5077928;27;47110;-67
2022/04/15 05:41:50;;;;;;;;;13.00;12.67;;;;;16.29;57.08;102051.81;5097350;27;45307;-68
2022/04/15 05:44:16;;;;;;;;;10.33;9.33;;;;;15.46;57.05;101914.13;5097565;27;45145;-66
2022/04/15 05:46:44;;;;;;;;;13.33;11.00;;;;;16.35;57.06;102061.09;5078526;27;45538;-66
2022/04/15 05:49:14;;;;;;;;;9.67;9.67;;;;;16.34;56.71;102052.19;5083231;27;46519;-68
2022/04/15 05:51:45;;;;;;;;;15.00;10.33;;;;;16.40;56.78;102054.25;5089115;27;45560;-67
2022/04/15 05:54:11;;;;;;;;;17.00;14.33;;;;;16.36;56.62;102039.47;5076086;27;45293;-67
2022/04/15 05:56:36;;;;;;;;;13.67;12.67;;;;;16.45;56.58;102056.53;5096745;27;45498;-68
2022/04/15 05:59:03;;;;;;;;;12.67;12.67;;;;;16.45;56.72;102048.47;5096795;27;45451;-68
2022/04/15 06:01:28;;;;;;;;;12.67;10.67;;;;;16.45;56.56;102053.84;5089808;27;45401;-68
2022/04/15 06:03:53;;;;;;;;;12.67;9.67;;;;;16.50;56.72;102056.06;5077177;28;45477;-68
2022/04/15 06:06:19;;;;;;;;;13.00;13.00;;;;;16.45;56.54;102050.31;5094027;27;45474;-67
2022/04/15 06:08:44;;;;;;;;;14.00;14.00;;;;;16.51;56.34;102052.38;5100364;27;46977;-68
2022/04/15 06:11:52;;;;;;;;;;;;;;;;;;;;;
2022/04/15 06:14:21;;;;;;;;;13.00;11.67;;;;;16.64;56.38;102075.19;5084487;27;69303;-68
2022/04/15 06:16:46;;;;;;;;;15.67;14.00;;;;;16.70;56.19;102077.31;5072747;28;45313;-67
2022/04/15 06:19:13;;;;;;;;;16.00;16.00;;;;;16.57;55.80;102047.25;5081795;27;45926;-67
2022/04/15 06:21:38;;;;;;;;;16.33;15.00;;;;;16.75;55.54;102067.94;5098460;27;45558;-69
2022/04/15 06:24:04;;;;;;;;;17.33;16.33;;;;;16.94;55.19;102083.91;5099281;27;45474;-68
2022/04/15 06:26:30;;;;;;;;;15.33;14.67;;;;;16.97;54.79;102086.28;5089244;27;45190;-68
2022/04/15 06:28:55;;;;;;;;;16.00;14.33;;;;;17.14;53.86;102071.16;5079399;28;46084;-69
2022/04/15 06:31:21;;;;;;;;;15.67;13.67;;;;;17.77;52.55;102079.91;5077704;28;45556;-68
2022/04/15 06:33:52;;;;;;;;;13.00;11.33;;;;;18.18;51.24;102066.69;5077990;28;45254;-68
2022/04/15 06:36:20;;;;;;;;;12.33;12.33;;;;;18.67;50.31;102083.91;5078648;28;45372;-68
2022/04/15 06:38:48;;;;;;;;;13.67;12.67;;;;;18.84;49.15;102084.78;5061174;28;48038;-66
2022/04/15 06:41:14;;;;;;;;;16.67;16.67;;;;;18.88;48.59;102080.75;5060632;28;45580;-66
2022/04/15 06:43:40;;;;;;;;;16.00;11.33;;;;;19.08;48.20;102092.06;5079005;28;45387;-67
2022/04/15 06:46:05;;;;;;;;;13.67;11.33;;;;;19.37;47.48;102097.78;5079810;28;45461;-63
2022/04/15 06:48:31;;;;;;;;;12.67;12.33;;;;;19.63;46.83;102081.47;5079674;27;46320;-67
2022/04/15 06:50:57;;;;;;;;;13.67;8.33;;;;;20.07;45.94;102090.97;5080500;27;45530;-68
2022/04/15 06:53:23;;;;;;;;;13.33;11.00;;;;;20.36;44.76;102086.63;5085144;27;45514;-67
2022/04/15 06:55:52;;;;;;;;;15.33;10.00;;;;;20.70;44.33;102073.84;5079668;28;45502;-68
2022/04/15 06:58:18;;;;;;;;;12.33;11.33;;;;;21.25;43.40;102095.28;5083120;27;45610;-69
2022/04/15 07:00:44;;;;;;;;;12.00;11.67;;;;;21.74;42.46;102092.13;5099349;27;45395;-68
2022/04/15 07:03:10;;;;;;;;;15.33;14.33;;;;;22.34;41.21;102096.56;5071182;28;45348;-66
2022/04/15 07:05:36;;;;;;;;;16.00;14.00;;;;;22.85;40.10;102085.75;5065495;27;45408;-67
2022/04/15 07:08:02;;;;;;;;;14.33;14.33;;;;;23.15;39.41;102084.56;5093847;27;46416;-67
2022/04/15 07:10:27;;;;;;;;;13.67;13.67;;;;;23.33;38.83;102076.81;5066654;27;45416;-73
2022/04/15 07:12:53;;;;;;;;;18.67;16.67;;;;;23.56;38.21;102083.88;5082348;27;45630;-67
2022/04/15 07:15:20;;;;;;;;;12.67;12.67;;;;;23.74;37.82;102097.84;5098709;27;45523;-66
2022/04/15 07:17:46;;;;;;;;;14.33;13.00;;;;;23.83;37.61;102076.81;5093211;27;46528;-67
2022/04/15 07:20:11;;;;;;;;;12.67;12.33;;;;;24.09;36.42;102078.84;5079837;27;45288;-67
2022/04/15 07:22:37;;;;;;;;;16.00;13.00;;;;;24.44;36.57;102101.41;5079925;27;45479;-67
2022/04/15 07:25:02;;;;;;;;;15.00;15.00;;;;;24.50;35.91;102065.25;5080171;27;45641;-67
2022/04/15 07:27:28;;;;;;;;;14.33;14.33;;;;;24.94;34.78;102091.09;5092815;27;45573;-68
2022/04/15 07:29:53;;;;;;;;;16.00;14.00;;;;;25.30;34.95;102091.59;5064257;27;45347;-68
2022/04/15 07:32:23;;;;;;;;;16.00;14.00;;;;;25.67;34.14;102098.31;5080483;27;45503;-66
2022/04/15 07:34:51;;;;;;;;;14.33;14.33;;;;;25.94;33.62;102092.81;5081339;27;45351;-66
2022/04/15 07:37:17;;;;;;;;;11.33;11.33;;;;;26.22;33.46;102106.16;5082073;27;46079;-67
2022/04/15 07:39:44;;;;;;;;;13.67;13.00;;;;;26.32;33.31;102085.59;5079000;27;45298;-65
2022/04/15 07:42:11;;;;;;;;;15.67;12.67;;;;;26.58;32.28;102094.72;5079776;27;45602;-64
2022/04/15 07:44:37;;;;;;;;;16.67;15.00;;;;;26.82;32.46;102101.31;5098742;27;45558;-66
2022/04/15 07:47:03;;;;;;;;;15.00;14.33;;;;;27.17;32.14;102099.84;5073265;27;45918;-68
2022/04/15 07:49:29;;;;;;;;;13.33;13.33;;;;;27.35;30.93;102090.06;5085526;27;45381;-68
2022/04/15 07:51:54;;;;;;;;;15.67;14.00;;;;;27.48;30.16;102095.41;5059971;28;45375;-68
2022/04/15 07:54:19;;;;;;;;;16.67;14.00;;;;;27.53;30.30;102082.75;5060347;28;46202;-71
2022/04/15 07:56:45;;;;;;;;;17.67;16.00;;;;;27.44;29.58;102054.06;5077868;28;47659;-67
2022/04/15 07:59:10;;;;;;;;;18.00;16.67;;;;;27.82;30.45;102096.78;5077577;27;45517;-69
2022/04/15 08:01:38;;;;;;;;;15.00;15.00;;;;;28.05;29.67;102090.69;5080714;27;45524;-69
2022/04/15 08:04:05;;;;;;;;;14.67;14.67;;;;;28.01;28.40;102062.94;5087651;27;45304;-69
2022/04/15 08:06:33;;;;;;;;;14.00;9.33;;;;;28.24;29.01;102100.56;5059083;28;48988;-70
2022/04/15 08:09:00;;;;;;;;;7.33;7.33;;;;;28.36;29.02;102103.38;5077317;27;45982;-68
2022/04/15 08:11:26;;;;;;;;;10.00;8.00;;;;;28.21;28.59;102070.06;5060385;28;45537;-67
2022/04/15 08:13:56;;;;;;;;;10.00;8.00;;;;;28.48;28.12;102096.06;5077572;28;45536;-66
2022/04/15 08:16:25;;;;;;;;;8.67;7.33;;;;;28.48;27.24;102068.72;5059224;28;47554;-67
2022/04/15 08:18:50;;;;;;;;;12.00;9.33;;;;;28.16;27.96;102090.75;5059641;28;45465;-67
2022/04/15 08:21:18;;;;;;;;;11.67;11.67;;;;;27.86;28.26;102065.22;5078069;28;45605;-70
2022/04/15 08:23:44;;;;;;;;;12.67;11.00;;;;;27.79;28.62;102108.19;5078106;27;45474;-67
2022/04/15 08:26:11;;;;;;;;;10.00;10.00;;;;;27.62;28.99;102094.22;5077419;28;45980;-68
2022/04/15 08:28:36;;;;;;;;;11.67;11.00;;;;;27.86;28.64;102093.41;5080119;27;45532;-69
2022/04/15 08:31:02;;;;;;;;;9.67;9.67;;;;;27.47;28.54;102089.13;5077974;27;45529;-72
2022/04/15 08:33:28;;;;;;;;;9.67;9.67;;;;;27.45;29.03;102112.25;5077784;28;45376;-68
2022/04/15 08:35:53;;;;;;;;;9.33;7.67;;;;;27.68;28.41;102095.28;5088215;27;45697;-67
2022/04/15 08:38:19;;;;;;;;;15.67;14.67;;;;;28.07;28.83;102110.44;5074459;28;45411;-68
2022/04/15 08:40:49;;;;;;;;;12.00;10.67;;;;;28.29;27.84;102108.09;5087539;27;45633;-67
2022/04/15 08:43:14;;;;;;;;;10.67;8.00;;;;;28.51;27.53;102114.75;5078035;28;45430;-69
2022/04/15 08:45:46;;;;;;;;;9.67;9.00;;;;;28.50;27.54;102115.00;5077619;28;46136;-69
2022/04/15 08:48:13;;;;;;;;;7.67;7.67;;;;;28.37;27.57;102116.00;5077279;28;45217;-70
2022/04/15 08:50:38;;;;;;;;;10.00;7.00;;;;;28.33;27.27;102120.25;5077178;27;45312;-67
2022/04/15 08:53:05;;;;;;;;;3.00;2.33;;;;;28.39;27.68;102116.59;5077411;28;45224;-68
2022/04/15 08:55:34;;;;;;;;;6.00;6.00;;;;;27.99;27.00;102072.44;5082225;27;45422;-67
2022/04/15 08:57:59;;;;;;;;;7.00;7.00;;;;;28.15;27.71;102121.88;5092218;27;45587;-68
2022/04/15 09:00:25;;;;;;;;;11.33;10.00;;;;;27.68;27.84;102070.69;5078012;27;45407;-67
2022/04/15 09:02:52;;;;;;;;;7.00;7.00;;;;;28.57;27.36;102121.22;5078819;27;45285;-66
2022/04/15 09:05:20;;;;;;;;;4.00;4.00;;;;;28.17;27.89;102106.09;5059011;28;46788;-69
2022/04/15 09:07:49;;;;;;;;;5.67;5.67;;;;;28.09;27.55;102111.88;5067531;28;45499;-67
2022/04/15 09:10:16;;;;;;;;;3.00;3.00;;;;;28.69;26.71;102131.16;5079770;27;45542;-66
2022/04/15 09:12:42;;;;;;;;;8.00;8.00;;;;;28.64;27.16;102105.56;5084718;27;45243;-66
2022/04/15 09:15:08;;;;;;;;;5.33;5.33;;;;;29.22;26.56;102122.19;5078810;27;47475;-68
2022/04/15 09:17:38;;;;;;;;;7.33;6.00;;;;;29.39;26.06;102056.59;5097134;27;45493;-70
2022/04/15 09:20:06;;;;;;;;;6.33;3.67;;;;;30.56;24.21;102120.38;5097508;27;45362;-66
2022/04/15 09:22:32;;;;;;;;;8.00;4.33;;;;;31.40;23.88;102122.53;5074456;27;45302;-69
2022/04/15 09:24:58;;;;;;;;;6.33;5.33;;;;;31.70;23.05;102120.28;5097126;27;46430;-69
2022/04/15 09:27:24;;;;;;;;;7.00;5.67;;;;;31.77;23.02;102128.38;5090720;27;45295;-67
2022/04/15 09:29:54;;;;;;;;;4.67;4.67;;;;;32.98;22.27;102126.34;5097316;27;45514;-68
2022/04/15 09:32:22;;;;;;;;;5.33;5.33;;;;;33.41;21.15;102110.78;5079146;27;45314;-67
2022/04/15 09:35:05;;;;;;;;;5.00;5.00;;;;;33.95;19.75;102096.81;5090764;27;45452;-70
2022/04/15 09:37:35;;;;;;;;;6.33;6.00;;;;;34.57;20.02;102125.53;5096512;27;45372;-66
2022/04/15 09:40:27;;;;;;;;;8.00;4.33;;;;;35.21;18.89;102123.19;5078127;27;45408;-66
2022/04/15 09:42:57;;;;;;;;;7.00;6.00;;;;;35.15;18.89;102116.00;5091193;27;45416;-67
2022/04/15 09:45:33;;;;;;;;;5.33;4.33;;;;;35.83;19.14;102121.19;5096853;27;46491;-67
2022/04/15 09:48:07;;;;;;;;;7.67;7.33;;;;;36.22;18.55;102099.22;5096758;27;45284;-68
2022/04/15 09:50:43;;;;;;;;;5.00;5.00;;;;;36.28;17.98;102122.22;5096214;27;45447;-67
2022/04/15 09:53:15;;;;;;;;;4.00;4.00;;;;;37.08;17.77;102118.16;5078974;27;45413;-68
2022/04/15 09:55:42;;;;;;;;;4.33;4.33;;;;;37.95;16.76;102114.59;5083276;27;45877;-68
2022/04/15 09:58:10;;;;;;;;;6.00;6.00;;;;;37.63;17.07;102110.47;5076084;28;45493;-68
2022/04/15 10:00:37;;;;;;;;;7.67;7.67;;;;;37.47;16.31;102063.75;5060875;27;45542;-67
2022/04/15 10:03:07;;;;;;;;;2.67;2.67;;;;;37.49;16.44;102117.00;5097096;27;45224;-69
2022/04/15 10:05:36;;;;;;;;;3.00;3.00;;;;;37.29;17.06;102068.09;5096583;27;45787;-68
2022/04/15 10:08:03;;;;;;;;;5.00;5.00;;;;;37.41;16.72;102115.69;5096317;27;45351;-67
2022/04/15 10:10:31;;;;;;;;;5.67;5.00;;;;;36.65;17.52;102105.16;5095549;27;45395;-66
2022/04/15 10:13:00;;;;;;;;;5.67;5.00;;;;;35.56;18.92;102089.16;5080278;27;45406;-67
2022/04/15 10:15:26;;;;;;;;;6.00;5.00;;;;;34.65;18.73;102075.31;5058746;28;47774;-69
2022/04/15 10:17:52;;;;;;;;;4.33;4.33;;;;;33.39;20.73;102101.94;5073978;28;45480;-67
2022/04/15 10:20:18;;;;;;;;;7.67;5.67;;;;;31.77;22.04;102087.94;5075788;27;45436;-67
2022/04/15 10:22:45;;;;;;;;;5.33;5.00;;;;;30.70;23.12;102054.25;5075689;27;45489;-69
2022/04/15 10:25:10;;;;;;;;;5.67;5.00;;;;;30.06;24.31;102091.91;5079469;27;47550;-68
2022/04/15 10:27:36;;;;;;;;;5.00;5.00;;;;;29.34;25.32;102078.38;5074492;28;45648;-68
2022/04/15 10:30:14;;;;;;;;;6.33;6.33;;;;;29.00;25.35;102107.38;5076064;27;45469;-74
2022/04/15 10:32:54;;;;;;;;;3.67;3.67;;;;;28.53;26.12;102098.13;5071759;28;45650;-68
2022/04/15 10:35:28;;;;;;;;;9.33;4.00;;;;;27.87;26.85;102080.56;5054259;28;46576;-67
2022/04/15 10:37:54;;;;;;;;;6.67;6.00;;;;;27.20;27.49;102027.56;5055694;28;45334;-68
2022/04/15 10:40:27;;;;;;;;;6.33;6.33;;;;;26.35;28.73;102096.09;5054216;28;45649;-69
2022/04/15 10:42:53;;;;;;;;;7.00;7.00;;;;;25.42;30.41;102083.63;5055704;28;45378;-67
2022/04/15 10:45:26;;;;;;;;;4.33;3.33;;;;;25.14;30.70;102087.38;5055717;28;45350;-67
2022/04/15 10:47:59;;;;;;;;;4.67;4.67;;;;;25.09;31.11;102079.03;5071143;28;45478;-65
2022/04/15 10:50:29;;;;;;;;;6.67;5.67;;;;;24.42;32.31;102098.88;5074423;28;45288;-66
2022/04/15 10:53:31;;;;;;;;;8.33;5.00;;;;;23.85;33.41;102097.28;5078082;27;45627;-70
2022/04/15 10:56:07;;;;;;;;;4.33;4.00;;;;;23.82;33.89;102105.81;5068238;28;45781;-69
2022/04/15 10:58:32;;;;;;;;;6.33;5.67;;;;;23.78;33.41;102093.69;5040451;28;45294;-68
2022/04/15 11:01:17;;;;;;;;;7.67;7.67;;;;;23.99;32.73;102098.19;5074877;28;45517;-67
2022/04/15 11:03:53;;;;;;;;;4.33;4.00;;;;;23.93;33.15;102094.41;5079261;27;45458;-66
2022/04/15 11:06:30;;;;;;;;;3.33;3.33;;;;;23.84;33.16;102094.78;5075921;28;46547;-65
2022/04/15 11:08:55;;;;;;;;;5.67;5.00;;;;;23.74;33.52;102078.81;5077335;28;45479;-68
2022/04/15 11:11:50;;;;;;;;;4.33;3.33;;;;;23.46;33.93;102086.94;5074405;28;45511;-67
2022/04/15 11:14:16;;;;;;;;;7.00;5.33;;;;;23.48;33.24;102078.59;5058279;28;45582;-66
2022/04/15 11:16:46;;;;;;;;;4.00;4.00;;;;;23.05;34.62;102079.50;5066873;28;45911;-66
2022/04/15 11:19:15;;;;;;;;;3.00;3.00;;;;;22.68;34.95;102072.38;5076522;28;45785;-67
2022/04/15 11:21:41;;;;;;;;;4.00;4.00;;;;;22.71;35.22;102071.16;5072593;28;45891;-66